sensor_id;sensor_type;location;lat;lon;timestamp;P1;durP1;ratioP1;P2;durP2;ratioP2
57023;SDS011;42916;54.346;18.562;2022-08-01T00:01:03;6.50;;;4.30;;
57023;SDS011;42916;54.346;18.562;2022-08-01T00:03:29;6.40;;;4.50;;
57023;SDS011;42916;54.346;18.562;2022-08-01T00:05:55;8.00;;;4.40;;
57023;SDS011;42916;54.346;18.562;2022-08-01T00:08:21;8.60;;;4.50;;
57023;SDS011;42916;54.346;18.562;2022-08-01T00:10:47;7.00;;;4.20;;
57023;SDS011;42916;54.346;18.562;2022-08-01T00:13:13;5.70;;;3.90;;
57023;SDS011;42916;54.346;18.562;2022-08-01T00:15:39;5.90;;;4.00;;
57023;SDS011;42916;54.346;18.562;2022-08-01T00:18:04;5.20;;;3.90;;
57023;SDS011;42916;54.346;18.562;2022-08-01T00:20:30;5.70;;;3.80;;
57023;SDS011;42916;54.346;18.562;2022-08-01T00:22:56;5.50;;;3.30;;
57023;SDS011;42916;54.346;18.562;2022-08-01T00:25:22;5.40;;;3.70;;
57023;SDS011;42916;54.346;18.562;2022-08-01T00:27:48;3.90;;;3.20;;
57023;SDS011;42916;54.346;18.562;2022-08-01T00:30:14;5.90;;;3.50;;
57023;SDS011;42916;54.346;18.562;2022-08-01T00:32:43;6.00;;;3.40;;
57023;SDS011;42916;54.346;18.562;2022-08-01T00:35:09;4.10;;;3.60;;
57023;SDS011;42916;54.346;18.562;2022-08-01T00:37:35;5.20;;;3.50;;
57023;SDS011;42916;54.346;18.562;2022-08-01T00:40:01;6.90;;;3.10;;
57023;SDS011;42916;54.346;18.562;2022-08-01T00:42:27;4.70;;;3.30;;
57023;SDS011;42916;54.346;18.562;2022-08-01T00:44:53;4.40;;;3.30;;
57023;SDS011;42916;54.346;18.562;2022-08-01T00:47:19;6.10;;;3.50;;
57023;SDS011;42916;54.346;18.562;2022-08-01T00:49:45;6.20;;;3.80;;
57023;SDS011;42916;54.346;18.562;2022-08-01T00:52:11;5.80;;;3.90;;
57023;SDS011;42916;54.346;18.562;2022-08-01T00:54:37;5.80;;;3.50;;
57023;SDS011;42916;54.346;18.562;2022-08-01T00:57:04;4.30;;;3.50;;
57023;SDS011;42916;54.346;18.562;2022-08-01T00:59:30;6.00;;;3.60;;
57023;SDS011;42916;54.346;18.562;2022-08-01T01:01:56;5.20;;;3.20;;
57023;SDS011;42916;54.346;18.562;2022-08-01T01:04:22;4.70;;;3.20;;
57023;SDS011;42916;54.346;18.562;2022-08-01T01:12:05;6.70;;;3.70;;
57023;SDS011;42916;54.346;18.562;2022-08-01T01:15:01;6.20;;;3.20;;
57023;SDS011;42916;54.346;18.562;2022-08-01T01:17:40;5.20;;;3.50;;
57023;SDS011;42916;54.346;18.562;2022-08-01T01:20:21;5.90;;;4.20;;
57023;SDS011;42916;54.346;18.562;2022-08-01T01:30:57;6.60;;;3.70;;
57023;SDS011;42916;54.346;18.562;2022-08-01T01:33:25;4.40;;;3.50;;
57023;SDS011;42916;54.346;18.562;2022-08-01T01:35:57;5.60;;;3.90;;
57023;SDS011;42916;54.346;18.562;2022-08-01T01:38:28;4.70;;;3.20;;
57023;SDS011;42916;54.346;18.562;2022-08-01T01:40:57;4.30;;;3.60;;
57023;SDS011;42916;54.346;18.562;2022-08-01T01:43:25;5.40;;;3.50;;
57023;SDS011;42916;54.346;18.562;2022-08-01T01:45:53;7.70;;;3.70;;
57023;SDS011;42916;54.346;18.562;2022-08-01T01:48:20;7.40;;;4.10;;
57023;SDS011;42916;54.346;18.562;2022-08-01T01:50:49;5.80;;;3.60;;
57023;SDS011;42916;54.346;18.562;2022-08-01T01:53:17;4.50;;;3.90;;
57023;SDS011;42916;54.346;18.562;2022-08-01T01:55:48;5.70;;;3.80;;
57023;SDS011;42916;54.346;18.562;2022-08-01T01:58:17;7.20;;;4.60;;
57023;SDS011;42916;54.346;18.562;2022-08-01T02:00:46;7.20;;;4.20;;
57023;SDS011;42916;54.346;18.562;2022-08-01T02:03:13;6.40;;;3.70;;
57023;SDS011;42916;54.346;18.562;2022-08-01T02:05:41;5.40;;;3.70;;
57023;SDS011;42916;54.346;18.562;2022-08-01T02:08:09;6.70;;;3.90;;
57023;SDS011;42916;54.346;18.562;2022-08-01T02:10:36;5.30;;;3.70;;
57023;SDS011;42916;54.346;18.562;2022-08-01T02:13:03;7.20;;;3.60;;
57023;SDS011;42916;54.346;18.562;2022-08-01T02:15:32;5.00;;;3.90;;
57023;SDS011;42916;54.346;18.562;2022-08-01T02:18:03;5.40;;;3.60;;
57023;SDS011;42916;54.346;18.562;2022-08-01T02:20:33;5.70;;;4.00;;
57023;SDS011;42916;54.346;18.562;2022-08-01T02:23:07;6.50;;;3.80;;
57023;SDS011;42916;54.346;18.562;2022-08-01T02:25:44;5.80;;;3.30;;
57023;SDS011;42916;54.346;18.562;2022-08-01T02:28:15;5.30;;;3.30;;
57023;SDS011;42916;54.346;18.562;2022-08-01T02:30:50;4.60;;;3.50;;
57023;SDS011;42916;54.346;18.562;2022-08-01T02:33:20;6.40;;;3.40;;
57023;SDS011;42916;54.346;18.562;2022-08-01T02:35:50;4.50;;;3.40;;
57023;SDS011;42916;54.346;18.562;2022-08-01T02:40:48;5.40;;;3.40;;
57023;SDS011;42916;54.346;18.562;2022-08-01T02:43:19;4.20;;;3.40;;
57023;SDS011;42916;54.346;18.562;2022-08-01T02:45:52;3.50;;;2.70;;
57023;SDS011;42916;54.346;18.562;2022-08-01T02:48:21;5.70;;;3.60;;
57023;SDS011;42916;54.346;18.562;2022-08-01T02:50:51;7.10;;;3.60;;
57023;SDS011;42916;54.346;18.562;2022-08-01T02:53:20;4.40;;;3.30;;
57023;SDS011;42916;54.346;18.562;2022-08-01T02:58:15;6.00;;;3.20;;
57023;SDS011;42916;54.346;18.562;2022-08-01T03:00:44;6.60;;;3.00;;
57023;SDS011;42916;54.346;18.562;2022-08-01T03:03:13;5.50;;;2.90;;
57023;SDS011;42916;54.346;18.562;2022-08-01T03:05:40;3.20;;;2.90;;
57023;SDS011;42916;54.346;18.562;2022-08-01T03:08:08;3.90;;;3.20;;
57023;SDS011;42916;54.346;18.562;2022-08-01T03:10:38;4.20;;;3.30;;
57023;SDS011;42916;54.346;18.562;2022-08-01T03:13:07;4.00;;;3.00;;
57023;SDS011;42916;54.346;18.562;2022-08-01T03:15:36;4.40;;;2.70;;
57023;SDS011;42916;54.346;18.562;2022-08-01T03:18:05;3.90;;;2.70;;
57023;SDS011;42916;54.346;18.562;2022-08-01T03:20:33;3.10;;;2.80;;
57023;SDS011;42916;54.346;18.562;2022-08-01T03:23:04;5.60;;;3.10;;
57023;SDS011;42916;54.346;18.562;2022-08-01T03:25:32;4.70;;;2.90;;
57023;SDS011;42916;54.346;18.562;2022-08-01T03:28:01;4.60;;;3.10;;
57023;SDS011;42916;54.346;18.562;2022-08-01T03:30:30;3.50;;;3.00;;
57023;SDS011;42916;54.346;18.562;2022-08-01T03:32:58;6.40;;;3.10;;
57023;SDS011;42916;54.346;18.562;2022-08-01T03:35:26;4.30;;;3.10;;
57023;SDS011;42916;54.346;18.562;2022-08-01T03:38:03;3.90;;;3.30;;
57023;SDS011;42916;54.346;18.562;2022-08-01T03:40:37;4.40;;;2.90;;
57023;SDS011;42916;54.346;18.562;2022-08-01T03:43:16;5.10;;;3.00;;
57023;SDS011;42916;54.346;18.562;2022-08-01T03:45:46;4.30;;;2.80;;
57023;SDS011;42916;54.346;18.562;2022-08-01T03:48:16;5.20;;;2.40;;
57023;SDS011;42916;54.346;18.562;2022-08-01T03:50:48;3.90;;;2.80;;
57023;SDS011;42916;54.346;18.562;2022-08-01T03:53:19;4.00;;;2.70;;
57023;SDS011;42916;54.346;18.562;2022-08-01T03:55:48;4.80;;;2.40;;
57023;SDS011;42916;54.346;18.562;2022-08-01T03:58:15;3.20;;;2.30;;
57023;SDS011;42916;54.346;18.562;2022-08-01T04:00:41;4.30;;;2.70;;
57023;SDS011;42916;54.346;18.562;2022-08-01T04:03:08;2.80;;;2.20;;
57023;SDS011;42916;54.346;18.562;2022-08-01T04:05:34;6.80;;;2.40;;
57023;SDS011;42916;54.346;18.562;2022-08-01T04:08:01;4.70;;;2.20;;
57023;SDS011;42916;54.346;18.562;2022-08-01T04:10:28;3.40;;;2.30;;
57023;SDS011;42916;54.346;18.562;2022-08-01T04:12:55;2.90;;;2.10;;
57023;SDS011;42916;54.346;18.562;2022-08-01T04:15:21;4.10;;;2.30;;
57023;SDS011;42916;54.346;18.562;2022-08-01T04:17:47;3.70;;;2.30;;
57023;SDS011;42916;54.346;18.562;2022-08-01T04:20:13;3.50;;;2.50;;
57023;SDS011;42916;54.346;18.562;2022-08-01T04:22:41;3.90;;;2.40;;
57023;SDS011;42916;54.346;18.562;2022-08-01T04:25:19;4.90;;;2.40;;
57023;SDS011;42916;54.346;18.562;2022-08-01T04:27:50;7.10;;;2.40;;
57023;SDS011;42916;54.346;18.562;2022-08-01T04:30:28;2.90;;;2.10;;
57023;SDS011;42916;54.346;18.562;2022-08-01T04:32:57;6.70;;;2.40;;
57023;SDS011;42916;54.346;18.562;2022-08-01T20:47:01;9.00;;;4.70;;
57023;SDS011;42916;54.346;18.562;2022-08-01T20:49:30;7.50;;;4.50;;
57023;SDS011;42916;54.346;18.562;2022-08-01T20:51:58;12.10;;;5.30;;
57023;SDS011;42916;54.346;18.562;2022-08-01T20:54:26;11.20;;;5.70;;
57023;SDS011;42916;54.346;18.562;2022-08-01T20:56:58;9.20;;;5.50;;
57023;SDS011;42916;54.346;18.562;2022-08-01T20:59:37;8.80;;;5.60;;
57023;SDS011;42916;54.346;18.562;2022-08-01T21:02:18;16.30;;;5.70;;
57023;SDS011;42916;54.346;18.562;2022-08-01T21:04:57;7.40;;;5.00;;
57023;SDS011;42916;54.346;18.562;2022-08-01T21:07:31;9.10;;;5.60;;
57023;SDS011;42916;54.346;18.562;2022-08-01T21:10:10;9.10;;;4.90;;
57023;SDS011;42916;54.346;18.562;2022-08-01T21:12:43;10.00;;;5.30;;
57023;SDS011;42916;54.346;18.562;2022-08-01T21:15:14;8.70;;;4.60;;
57023;SDS011;42916;54.346;18.562;2022-08-01T21:20:57;8.30;;;4.60;;
57023;SDS011;42916;54.346;18.562;2022-08-01T21:23:32;12.00;;;5.40;;
57023;SDS011;42916;54.346;18.562;2022-08-01T21:26:05;8.40;;;5.10;;
57023;SDS011;42916;54.346;18.562;2022-08-01T21:28:35;10.80;;;5.90;;
57023;SDS011;42916;54.346;18.562;2022-08-01T21:31:02;10.60;;;6.70;;
57023;SDS011;42916;54.346;18.562;2022-08-01T21:33:29;10.60;;;5.80;;
57023;SDS011;42916;54.346;18.562;2022-08-01T21:35:57;10.90;;;5.50;;
57023;SDS011;42916;54.346;18.562;2022-08-01T21:38:25;9.00;;;5.80;;
57023;SDS011;42916;54.346;18.562;2022-08-01T21:40:53;10.60;;;5.60;;
57023;SDS011;42916;54.346;18.562;2022-08-01T21:43:20;9.80;;;5.60;;
57023;SDS011;42916;54.346;18.562;2022-08-01T21:45:48;8.50;;;5.90;;
57023;SDS011;42916;54.346;18.562;2022-08-01T21:48:16;8.70;;;5.90;;
57023;SDS011;42916;54.346;18.562;2022-08-01T21:51:02;9.90;;;5.80;;
57023;SDS011;42916;54.346;18.562;2022-08-01T21:53:58;10.10;;;5.80;;
57023;SDS011;42916;54.346;18.562;2022-08-01T22:02:10;9.20;;;5.30;;
57023;SDS011;42916;54.346;18.562;2022-08-01T22:04:52;8.90;;;5.40;;
57023;SDS011;42916;54.346;18.562;2022-08-01T22:07:25;10.90;;;5.40;;
57023;SDS011;42916;54.346;18.562;2022-08-01T22:09:54;11.60;;;6.10;;
57023;SDS011;42916;54.346;18.562;2022-08-01T22:12:23;10.70;;;5.70;;
57023;SDS011;42916;54.346;18.562;2022-08-01T22:14:51;13.80;;;6.10;;
57023;SDS011;42916;54.346;18.562;2022-08-01T22:17:20;10.60;;;6.20;;
57023;SDS011;42916;54.346;18.562;2022-08-01T22:19:49;11.50;;;5.40;;
57023;SDS011;42916;54.346;18.562;2022-08-01T22:22:22;7.30;;;5.60;;
57023;SDS011;42916;54.346;18.562;2022-08-01T22:24:49;11.80;;;5.80;;
57023;SDS011;42916;54.346;18.562;2022-08-01T22:27:16;11.30;;;5.80;;
57023;SDS011;42916;54.346;18.562;2022-08-01T22:29:51;9.30;;;5.80;;
57023;SDS011;42916;54.346;18.562;2022-08-01T22:32:19;8.30;;;5.30;;
57023;SDS011;42916;54.346;18.562;2022-08-01T22:34:46;9.00;;;5.30;;
57023;SDS011;42916;54.346;18.562;2022-08-01T22:37:12;11.20;;;5.40;;
57023;SDS011;42916;54.346;18.562;2022-08-01T22:39:38;7.80;;;5.30;;
57023;SDS011;42916;54.346;18.562;2022-08-01T22:42:05;10.30;;;5.10;;
57023;SDS011;42916;54.346;18.562;2022-08-01T22:44:42;7.80;;;4.70;;
57023;SDS011;42916;54.346;18.562;2022-08-01T22:50:32;8.10;;;4.80;;
57023;SDS011;42916;54.346;18.562;2022-08-01T22:55:37;8.80;;;5.30;;
57023;SDS011;42916;54.346;18.562;2022-08-01T22:58:09;9.60;;;5.20;;
57023;SDS011;42916;54.346;18.562;2022-08-01T23:00:37;8.50;;;5.20;;
57023;SDS011;42916;54.346;18.562;2022-08-01T23:06:02;8.80;;;5.10;;
57023;SDS011;42916;54.346;18.562;2022-08-01T23:08:32;6.60;;;4.60;;
57023;SDS011;42916;54.346;18.562;2022-08-01T23:11:01;6.30;;;4.40;;
57023;SDS011;42916;54.346;18.562;2022-08-01T23:15:56;7.40;;;4.20;;
57023;SDS011;42916;54.346;18.562;2022-08-01T23:18:24;6.00;;;3.40;;
57023;SDS011;42916;54.346;18.562;2022-08-01T23:20:52;4.30;;;3.20;;
57023;SDS011;42916;54.346;18.562;2022-08-01T23:23:26;7.60;;;3.60;;
57023;SDS011;42916;54.346;18.562;2022-08-01T23:25:54;4.00;;;3.10;;
57023;SDS011;42916;54.346;18.562;2022-08-01T23:28:22;3.10;;;2.50;;
57023;SDS011;42916;54.346;18.562;2022-08-01T23:30:50;5.90;;;2.80;;
57023;SDS011;42916;54.346;18.562;2022-08-01T23:33:17;4.40;;;3.00;;
57023;SDS011;42916;54.346;18.562;2022-08-01T23:35:44;5.50;;;3.20;;
57023;SDS011;42916;54.346;18.562;2022-08-01T23:38:11;4.30;;;2.80;;
57023;SDS011;42916;54.346;18.562;2022-08-01T23:40:40;4.20;;;2.80;;
57023;SDS011;42916;54.346;18.562;2022-08-01T23:43:08;3.90;;;2.60;;
57023;SDS011;42916;54.346;18.562;2022-08-01T23:45:34;5.40;;;2.50;;
57023;SDS011;42916;54.346;18.562;2022-08-01T23:48:02;5.20;;;2.80;;
57023;SDS011;42916;54.346;18.562;2022-08-01T23:50:28;3.60;;;2.60;;
57023;SDS011;42916;54.346;18.562;2022-08-01T23:52:55;4.30;;;2.50;;
57023;SDS011;42916;54.346;18.562;2022-08-01T23:55:22;6.40;;;2.80;;
57023;SDS011;42916;54.346;18.562;2022-08-01T23:57:49;3.00;;;2.50;;
